Centerville, California
Current Conditions -  °F | °C
As of 9:53 AM on Thursday 18 Dec 2014 (Local Time) from KFAT Reporting Station
Broken Clouds Broken Clouds  
Wind Chill: 53°   Ceiling: 20000
Heat Index: 53°   Visibility: 10mi
Dew Point: 44°   Wind: 7mph
Humidity: 71%   Direction: 80°E
Pressure: 30.22"   Gusts: NA
Location:  36.8137°N, 119.374°W
Report Text: KFAT 181753Z 08006KT 10SM BKN200 12/07 A3022 RMK AO2 SLP232 T01170067 10117 20067 51019
Loading
Personal Weather Stations






























Interactive Weather Map New forecast layout! Learn more

10-Day Weather Forecast

Advertisements
Track Severe Weather on mobile